createdAt,value
2023-01-12T00:03:17.114Z,98159.91
2023-01-12T00:08:18.931Z,98161.03
2023-01-12T00:13:20.794Z,98150.94
2023-01-12T00:18:22.663Z,98157.91
2023-01-12T00:23:26.228Z,98145.72
2023-01-12T00:28:28.077Z,98128.41
2023-01-12T00:33:29.963Z,98131.09
2023-01-12T00:38:33.807Z,98122.66
2023-01-12T00:43:54.596Z,98134.03
2023-01-12T00:48:56.481Z,98129.75
2023-01-12T00:53:58.376Z,98145.28
2023-01-12T00:59:00.392Z,98130.41
2023-01-12T01:04:02.723Z,98129.50
2023-01-12T01:09:05.184Z,98117.22
2023-01-12T01:14:07.230Z,98115.75
2023-01-12T01:19:10.113Z,98115.75
2023-01-12T01:24:13.695Z,98131.97
2023-01-12T01:29:15.546Z,98139.19
2023-01-12T01:34:18.004Z,98144.81
2023-01-12T01:39:19.853Z,98130.66
2023-01-12T01:44:30.661Z,98135.03
2023-01-12T01:49:34.636Z,98139.66
2023-01-12T01:54:48.890Z,98155.19
2023-01-12T01:59:55.179Z,98141.56
2023-01-12T02:04:57.597Z,98144.59
2023-01-12T02:09:59.479Z,98147.31
2023-01-12T02:15:19.686Z,98172.75
2023-01-12T02:20:40.650Z,98164.63
2023-01-12T02:26:16.362Z,98147.78
2023-01-12T02:31:30.054Z,98149.44
2023-01-12T02:36:31.877Z,98142.13
2023-01-12T02:41:56.985Z,98127.41
2023-01-12T02:47:01.617Z,98140.00
2023-01-12T02:52:07.707Z,98110.88
2023-01-12T02:57:11.057Z,98115.13
2023-01-12T03:02:19.252Z,98110.06
2023-01-12T03:07:45.540Z,98114.69
2023-01-12T03:12:51.532Z,98121.69
2023-01-12T03:18:03.678Z,98120.31
2023-01-12T03:23:19.379Z,98111.84
2023-01-12T03:28:24.962Z,98095.56
2023-01-12T03:33:27.283Z,98102.28
2023-01-12T03:38:50.610Z,98086.53
2023-01-12T03:43:58.059Z,98086.97
2023-01-12T03:49:02.951Z,98081.91
2023-01-12T03:54:08.345Z,98087.66
2023-01-12T03:59:10.319Z,98080.91
2023-01-12T04:04:12.170Z,98082.47
2023-01-12T04:09:14.183Z,98080.31
2023-01-12T04:14:15.972Z,98075.91
2023-01-12T04:19:17.765Z,98076.16
2023-01-12T04:24:19.599Z,98058.13
2023-01-12T04:29:21.380Z,98054.81
2023-01-12T04:34:23.769Z,98044.19
2023-01-12T04:39:25.583Z,98045.00
2023-01-12T04:44:27.446Z,98061.31
2023-01-12T04:49:29.279Z,98041.25
2023-01-12T04:54:31.096Z,98032.81
2023-01-12T04:59:32.903Z,98036.66
2023-01-12T05:04:34.753Z,98017.38
2023-01-12T05:09:55.518Z,98031.66
2023-01-12T05:14:57.395Z,98019.72
2023-01-12T05:20:00.790Z,98010.50
2023-01-12T05:25:03.020Z,98018.59
2023-01-12T05:30:05.771Z,97988.88
2023-01-12T05:35:08.761Z,98000.56
2023-01-12T05:40:11.457Z,97998.72
2023-01-12T05:45:13.350Z,98004.59
2023-01-12T05:50:15.281Z,97999.59
2023-01-12T05:55:17.117Z,97993.06
2023-01-12T06:00:19.362Z,97989.25
2023-01-12T06:05:21.253Z,97987.66
2023-01-12T06:10:23.103Z,97988.53
2023-01-12T06:15:24.923Z,97992.47
2023-01-12T06:20:26.769Z,97995.63
2023-01-12T06:25:30.158Z,97989.50
2023-01-12T06:30:31.970Z,97977.09
2023-01-12T06:35:33.875Z,97976.34
2023-01-12T06:40:35.683Z,97975.63
2023-01-12T06:45:37.618Z,97983.31
2023-01-12T06:50:39.453Z,97982.72
2023-01-12T07:01:13.940Z,97983.69
2023-01-12T07:06:16.762Z,97989.50
2023-01-12T07:11:18.708Z,97992.31
2023-01-12T07:16:20.922Z,97992.31
2023-01-12T07:21:22.846Z,97985.84
2023-01-12T07:26:25.077Z,97988.72
2023-01-12T07:31:27.277Z,97971.97
2023-01-12T07:36:29.111Z,97996.91
2023-01-12T07:41:49.772Z,97997.69
2023-01-12T07:46:52.417Z,97996.88
2023-01-12T07:51:55.614Z,98000.63
2023-01-12T07:56:58.075Z,97999.44
2023-01-12T08:01:59.997Z,98004.19
2023-01-12T08:07:01.914Z,98001.88
2023-01-12T08:12:03.934Z,97982.66
2023-01-12T08:17:13.968Z,97989.63
2023-01-12T08:22:20.567Z,97984.22
2023-01-12T08:27:26.848Z,97969.09
2023-01-12T08:32:29.330Z,97972.66
2023-01-12T08:37:32.954Z,97963.50
2023-01-12T08:42:34.924Z,97962.84
2023-01-12T08:47:37.698Z,97954.84
2023-01-12T08:52:39.595Z,97949.88
2023-01-12T08:57:41.424Z,97963.13
2023-01-12T09:02:43.522Z,97943.88
2023-01-12T09:07:45.385Z,97942.84
2023-01-12T09:12:47.290Z,97941.41
2023-01-12T09:17:55.623Z,97926.00
2023-01-12T09:22:57.464Z,97926.41
2023-01-12T09:27:59.291Z,97929.13
2023-01-12T09:33:01.332Z,97917.56
2023-01-12T09:38:03.189Z,97914.88
2023-01-12T09:43:23.576Z,97892.00
2023-01-12T09:48:26.097Z,97882.31
2023-01-12T09:53:34.634Z,97869.19
2023-01-12T09:58:54.003Z,97859.84
2023-01-12T10:03:56.422Z,97874.53
2023-01-12T10:09:20.481Z,97867.59
2023-01-12T10:14:48.578Z,97879.31
2023-01-12T10:19:56.156Z,97879.31
2023-01-12T10:24:59.691Z,97866.47
2023-01-12T10:30:02.270Z,97880.81
2023-01-12T10:35:04.409Z,97849.50
2023-01-12T10:40:06.839Z,97837.47
2023-01-12T10:45:22.630Z,97830.63
2023-01-12T10:50:31.584Z,97828.34
2023-01-12T10:55:39.728Z,97819.03
2023-01-12T11:00:48.821Z,97812.09
2023-01-12T11:05:50.748Z,97810.50
2023-01-12T11:10:52.810Z,97792.59
2023-01-12T11:16:09.593Z,97788.28
2023-01-12T11:21:15.955Z,97780.00
2023-01-12T11:26:22.824Z,97772.19
2023-01-12T11:31:40.003Z,97774.59
2023-01-12T11:36:46.842Z,97769.53
2023-01-12T11:42:14.062Z,97756.78
2023-01-12T11:47:21.176Z,97770.75
2023-01-12T11:52:25.485Z,97769.91
2023-01-12T11:57:27.272Z,97743.41
2023-01-12T12:02:35.193Z,97738.66
2023-01-12T12:08:00.360Z,97724.66
2023-01-12T12:13:23.781Z,97716.09
2023-01-12T12:18:31.604Z,97720.69
2023-01-12T12:23:54.856Z,97722.19
2023-01-12T12:29:05.760Z,97714.44
2023-01-12T12:34:16.502Z,97726.00
2023-01-12T12:39:57.711Z,97722.03
2023-01-12T12:45:16.685Z,97712.59
2023-01-12T12:50:23.699Z,97704.75
2023-01-12T12:55:27.062Z,97697.66
2023-01-12T13:00:42.691Z,97704.56
2023-01-12T13:05:47.559Z,97687.06
2023-01-12T13:10:58.893Z,97679.66
2023-01-12T13:16:15.845Z,97686.53
2023-01-12T13:21:26.860Z,97672.56
2023-01-12T13:26:41.341Z,97665.56
2023-01-12T13:31:43.281Z,97672.56
2023-01-12T13:36:45.136Z,97673.34
2023-01-12T13:42:07.186Z,97667.16
2023-01-12T13:47:19.164Z,97664.44
2023-01-12T13:52:28.908Z,97676.91
2023-01-12T13:57:32.011Z,97651.75
2023-01-12T14:02:34.444Z,97662.28
2023-01-12T14:07:36.253Z,97668.88
2023-01-12T14:13:02.446Z,97663.19
2023-01-12T14:18:09.370Z,97658.00
2023-01-12T14:23:21.345Z,97660.69
2023-01-12T14:28:23.812Z,97659.56
2023-01-12T14:33:29.343Z,97664.22
2023-01-12T14:38:34.394Z,97675.81
2023-01-12T14:43:55.329Z,97660.41
2023-01-12T14:49:20.078Z,97665.13
2023-01-12T14:54:26.597Z,97661.25
2023-01-12T14:59:38.373Z,97660.53
2023-01-12T15:04:54.018Z,97652.88
2023-01-12T15:09:58.192Z,97667.63
2023-01-12T15:15:52.226Z,97656.06
2023-01-12T15:21:12.781Z,97675.44
2023-01-12T15:26:14.613Z,97670.75
2023-01-12T15:31:29.626Z,97666.88
2023-01-12T15:36:31.557Z,97673.88
2023-01-12T15:41:52.260Z,97686.22
2023-01-12T15:46:54.092Z,97668.81
2023-01-12T15:51:56.093Z,97676.94
2023-01-12T15:56:59.699Z,97675.00
2023-01-12T16:02:01.784Z,97680.44
2023-01-12T16:07:03.726Z,97672.31
2023-01-12T16:12:05.867Z,97667.25
2023-01-12T16:17:07.723Z,97674.19
2023-01-12T16:22:23.301Z,97671.47
2023-01-12T16:27:27.257Z,97669.19
2023-01-12T16:32:29.106Z,97670.75
2023-01-12T16:37:33.457Z,97678.56
2023-01-12T16:42:35.375Z,97685.53
2023-01-12T16:47:37.207Z,97677.78
2023-01-12T16:52:40.801Z,97657.31
2023-01-12T16:57:42.817Z,97660.09
2023-01-12T17:02:44.717Z,97669.44
2023-01-12T17:07:48.553Z,97653.25
2023-01-12T17:12:54.088Z,97656.03
2023-01-12T17:18:00.489Z,97661.50
2023-01-12T17:23:03.105Z,97657.69
2023-01-12T17:28:05.230Z,97659.63
2023-01-12T17:33:07.463Z,97643.38
2023-01-12T17:38:09.296Z,97645.75
2023-01-12T17:43:14.819Z,97631.09
2023-01-12T17:48:19.590Z,97628.00
2023-01-12T17:53:21.981Z,97631.53
2023-01-12T17:58:24.265Z,97650.56
2023-01-12T18:03:26.298Z,97655.22
2023-01-12T18:08:29.054Z,97658.81
2023-01-12T18:13:31.476Z,97637.63
2023-01-12T18:18:33.732Z,97662.16
2023-01-12T18:23:36.719Z,97661.91
2023-01-12T18:28:39.276Z,97656.09
2023-01-12T18:33:42.286Z,97645.28
2023-01-12T18:38:45.374Z,97652.28
2023-01-12T18:43:50.429Z,97637.84
2023-01-12T18:48:52.709Z,97637.78
2023-01-12T18:53:55.382Z,97632.78
2023-01-12T18:58:57.459Z,97626.59
2023-01-12T19:03:59.781Z,97637.84
2023-01-12T19:09:20.598Z,97628.56
2023-01-12T19:14:41.302Z,97620.84
2023-01-12T19:19:43.264Z,97627.25
2023-01-12T19:25:04.021Z,97611.91
2023-01-12T19:30:06.867Z,97609.72
2023-01-12T19:35:11.307Z,97606.63
2023-01-12T19:40:21.191Z,97608.25
2023-01-12T19:45:23.281Z,97616.78
2023-01-12T19:50:25.115Z,97617.22
2023-01-12T19:55:27.043Z,97597.81
2023-01-12T20:00:30.087Z,97599.38
2023-01-12T20:05:31.973Z,97586.22
2023-01-12T20:10:35.359Z,97587.03
2023-01-12T20:15:38.843Z,97600.31
2023-01-12T20:20:41.243Z,97580.94
2023-01-12T20:25:44.821Z,97576.25
2023-01-12T20:30:46.882Z,97577.06
2023-01-12T20:35:50.028Z,97593.34
2023-01-12T20:40:52.693Z,97594.19
2023-01-12T20:45:54.550Z,97588.00
2023-01-12T20:50:56.416Z,97579.53
2023-01-12T20:55:58.261Z,97584.19
2023-01-12T21:01:00.261Z,97580.75
2023-01-12T21:06:02.322Z,97572.63
2023-01-12T21:11:04.602Z,97581.16
2023-01-12T21:16:09.055Z,97565.63
2023-01-12T21:21:12.306Z,97561.75
2023-01-12T21:26:14.131Z,97554.00
2023-01-12T21:31:16.251Z,97555.56
2023-01-12T21:36:18.841Z,97554.41
2023-01-12T21:41:21.813Z,97538.13
2023-01-12T21:46:23.656Z,97533.09
2023-01-12T21:51:25.557Z,97535.22
2023-01-12T21:56:27.431Z,97528.47
2023-01-12T22:01:29.330Z,97541.31
2023-01-12T22:06:31.320Z,97543.22
2023-01-12T22:11:33.145Z,97540.91
2023-01-12T22:16:35.016Z,97546.72
2023-01-12T22:21:36.863Z,97529.25
2023-01-12T22:26:38.791Z,97534.69
2023-01-12T22:31:40.719Z,97533.94
2023-01-12T22:36:45.415Z,97537.06
2023-01-12T22:41:50.560Z,97539.38
2023-01-12T22:46:52.692Z,97531.63
2023-01-12T22:51:55.671Z,97539.31
2023-01-12T22:56:57.502Z,97536.22
2023-01-12T23:02:19.336Z,97533.88
2023-01-12T23:07:21.654Z,97519.13
2023-01-12T23:12:23.489Z,97516.06
2023-01-12T23:17:26.281Z,97505.94
2023-01-12T23:22:31.709Z,97503.63
2023-01-12T23:27:33.749Z,97512.16
2023-01-12T23:32:35.557Z,97504.47
2023-01-12T23:37:37.427Z,97498.66
2023-01-12T23:42:39.316Z,97485.47
2023-01-12T23:47:41.244Z,97489.72
2023-01-12T23:52:43.091Z,97494.34
2023-01-12T23:57:48.452Z,97487.34
